Nord Copenhagen — 3FNV7 — position and weather

sailwx.info

Track history (hours):
 
Tides and Currents Weather Stations Pressure Air Temp Water Temp Dewpoint Dewpoint Depression Visibility Wind Speed Wind Dir Waves Ship Positions

Nord Copenhagen

Last reported at 2017-Apr-27 13:08 UTC. Time now 2017-Apr-28 10:23 UTC.
Position N 26°41' W 083°12'.

Length 177 m; draft 9.5 m.

Type: Cargo ship. MMSI: 373334000.

Date/timePositionNaut miles runAvg speedWind from/ knotsBaromVisibWave heightAir tempDewpointWater temp
2017-Apr-27 13:08N 26°41' W 083°12'212.7
2017-Apr-27 12:56N 26°43' W 083°13'512.6
2017-Apr-27 12:30N 26°49' W 083°12'1712.5
2017-Apr-27 11:06N 27°06' W 083°12'312.4
2017-Apr-27 10:53N 27°09' W 083°12'2712.4
2017-Apr-27 08:41N 27°35' W 083°01'1311.1
2017-Apr-27 07:30N 27°37' W 082°47'611.4
2017-Apr-27 07:00N 27°37' W 082°40'510.8
2017-Apr-27 06:30N 27°40' W 082°36'510.6
2017-Apr-27 06:00N 27°44' W 082°32'5 9.7
2017-Apr-27 05:30N 27°48' W 082°29'3 6.5
2017-Apr-27 05:00N 27°48' W 082°25'0 0.8
2017-Apr-27 04:28N 27°48' W 082°24'0 0.0
2017-Apr-27 03:58N 27°48' W 082°24'0 0.0
2017-Apr-27 03:28N 27°48' W 082°24'0 0.0
2017-Apr-27 02:58N 27°48' W 082°24'0 0.0
2017-Apr-27 02:28N 27°48' W 082°24'0 0.0
2017-Apr-27 01:58N 27°48' W 082°24'0 0.0
2017-Apr-27 01:28N 27°48' W 082°24'0 0.0
2017-Apr-27 00:58N 27°48' W 082°24'0 0.0
2017-Apr-27 00:25N 27°48' W 082°24'0 0.0
2017-Apr-26 23:58N 27°48' W 082°24'0 0.0
2017-Apr-26 23:28N 27°48' W 082°24'0 0.0
2017-Apr-26 22:58N 27°48' W 082°24'0 0.0
2017-Apr-26 22:28N 27°48' W 082°24'0 0.0
2017-Apr-26 21:58N 27°48' W 082°24'0 0.0
2017-Apr-26 21:28N 27°48' W 082°24'0 0.0
2017-Apr-26 20:58N 27°48' W 082°24'0 0.0
2017-Apr-26 20:28N 27°48' W 082°24'0 0.0
2017-Apr-26 19:58N 27°48' W 082°24'0 0.0
2017-Apr-26 19:28N 27°48' W 082°24'0 0.0
2017-Apr-26 18:58N 27°48' W 082°24'0 0.0
2017-Apr-26 18:28N 27°48' W 082°24'0 0.0
2017-Apr-26 17:58N 27°48' W 082°24'0 0.0
2017-Apr-26 17:28N 27°48' W 082°24'0 0.0
2017-Apr-26 16:58N 27°48' W 082°24'0 0.1
2017-Apr-26 16:28N 27°48' W 082°25'1 1.4
2017-Apr-26 16:00N 27°48' W 082°25'2 3.2
2017-Apr-26 15:30N 27°49' W 082°27'2 3.8
2017-Apr-26 15:00N 27°51' W 082°26'2 4.3
2017-Apr-26 14:28N 27°51' W 082°24'0 0.1
2017-Apr-26 13:28N 27°51' W 082°24'0 0.0
2017-Apr-26 12:58N 27°51' W 082°24'0 0.0
2017-Apr-26 12:28N 27°51' W 082°24'0 0.0
2017-Apr-26 11:55N 27°51' W 082°24'0 0.0
2017-Apr-26 11:28N 27°51' W 082°24'0 0.0
2017-Apr-26 10:58N 27°51' W 082°24'0 0.0
2017-Apr-26 10:28N 27°51' W 082°24'0 0.0
2017-Apr-26 09:58N 27°51' W 082°24'0 0.0
2017-Apr-26 09:28N 27°51' W 082°24'0 0.0
2017-Apr-26 08:58N 27°51' W 082°24'0 0.0
2017-Apr-26 08:28N 27°51' W 082°24'0 0.0
2017-Apr-26 07:58N 27°51' W 082°24'0 0.0
2017-Apr-26 07:28N 27°51' W 082°24'0 0.0
2017-Apr-26 06:58N 27°51' W 082°24'0 0.0
2017-Apr-26 06:28N 27°51' W 082°24'0 0.0
2017-Apr-26 05:58N 27°51' W 082°24'0 0.0
2017-Apr-26 05:28N 27°51' W 082°24'0 0.0
2017-Apr-26 04:58N 27°51' W 082°24'0 0.0
2017-Apr-26 04:28N 27°51' W 082°24'0 0.0
2017-Apr-26 03:58N 27°51' W 082°24'0 0.0
2017-Apr-26 03:28N 27°51' W 082°24'0 0.0
2017-Apr-26 02:58N 27°51' W 082°24'0 0.0
2017-Apr-26 02:28N 27°51' W 082°24'0 0.0
2017-Apr-26 01:58N 27°51' W 082°24'0 0.0
2017-Apr-26 01:28N 27°51' W 082°24'0 0.0
2017-Apr-26 00:58N 27°51' W 082°24'0 0.0
2017-Apr-26 00:28N 27°51' W 082°24'0 0.0
2017-Apr-26 00:01N 27°51' W 082°24'0 0.0
2017-Apr-25 23:28N 27°51' W 082°24'0 0.0
2017-Apr-25 22:58N 27°51' W 082°24'0 0.0
2017-Apr-25 22:28N 27°51' W 082°24'0 0.0
2017-Apr-25 21:58N 27°51' W 082°24'0 0.0
2017-Apr-25 21:28N 27°51' W 082°24'0 0.0
2017-Apr-25 20:58N 27°51' W 082°24'0 0.0
2017-Apr-25 20:28N 27°51' W 082°24'0 0.0
2017-Apr-25 20:01N 27°51' W 082°24'0 0.0
2017-Apr-25 19:28N 27°51' W 082°24'0 0.0
2017-Apr-25 18:58N 27°51' W 082°24'0 0.0
2017-Apr-25 18:28N 27°51' W 082°24'0 0.0
2017-Apr-25 17:58N 27°51' W 082°24'0 0.0
2017-Apr-25 17:28N 27°51' W 082°24'0 0.0
2017-Apr-25 16:58N 27°51' W 082°24'0 0.0
2017-Apr-25 16:28N 27°51' W 082°24'0 0.0
2017-Apr-25 15:58N 27°51' W 082°24'0 0.0
2017-Apr-25 15:28N 27°51' W 082°24'0 0.0
2017-Apr-25 14:58N 27°51' W 082°24'0 0.0
2017-Apr-25 14:28N 27°51' W 082°24'0 0.0
2017-Apr-25 13:28N 27°51' W 082°24'0 0.0
2017-Apr-25 13:00N 27°51' W 082°24'0 0.0
2017-Apr-25 12:28N 27°51' W 082°24'0 0.0
2017-Apr-25 11:58N 27°51' W 082°24'0 0.0
2017-Apr-25 11:28N 27°51' W 082°24'0 0.0
2017-Apr-25 10:58N 27°51' W 082°24'0 0.0
2017-Apr-25 10:28N 27°51' W 082°24'0 0.0
2017-Apr-25 09:58N 27°51' W 082°24'0 0.0
2017-Apr-25 09:28N 27°51' W 082°24'0 0.0
2017-Apr-25 09:01N 27°51' W 082°24'0 0.0
2017-Apr-25 08:31N 27°51' W 082°24'0 0.0
2017-Apr-25 07:58N 27°51' W 082°24'0 0.0
2017-Apr-25 07:28N 27°51' W 082°24'0 0.0
2017-Apr-25 07:01N 27°51' W 082°24'0 0.0
2017-Apr-25 06:28N 27°51' W 082°24'0 0.0
2017-Apr-25 06:00N 27°51' W 082°24'0 0.0
2017-Apr-25 05:31N 27°51' W 082°24'0 0.0
2017-Apr-25 05:00N 27°51' W 082°24'0 0.0
2017-Apr-25 04:27N 27°51' W 082°24'0 0.0
2017-Apr-25 04:01N 27°51' W 082°24'0 0.0
2017-Apr-25 03:30N 27°51' W 082°24'0 0.0
2017-Apr-25 03:01N 27°51' W 082°24'0 0.0
2017-Apr-25 02:31N 27°51' W 082°24'0 0.0
2017-Apr-25 02:01N 27°51' W 082°24'0 0.0
2017-Apr-25 01:28N 27°51' W 082°24'0 0.0
2017-Apr-25 00:58N 27°51' W 082°24'0 0.0
2017-Apr-25 00:28N 27°51' W 082°24'0 0.0
2017-Apr-24 23:57N 27°51' W 082°24'0 0.0
2017-Apr-24 23:30N 27°51' W 082°24'0 0.0
2017-Apr-24 23:00N 27°51' W 082°24'0 0.0
2017-Apr-24 22:31N 27°51' W 082°24'0 0.0
2017-Apr-24 22:00N 27°51' W 082°24'0 0.0
2017-Apr-24 21:30N 27°51' W 082°24'0 0.0
2017-Apr-24 21:00N 27°51' W 082°24'0 0.0
2017-Apr-24 20:30N 27°51' W 082°24'0 0.0
2017-Apr-24 20:00N 27°51' W 082°24'0 0.0
2017-Apr-24 19:30N 27°51' W 082°24'0 0.0
2017-Apr-24 18:57N 27°51' W 082°24'0 0.0
2017-Apr-24 18:27N 27°51' W 082°24'0 0.0
2017-Apr-24 18:01N 27°51' W 082°24'0 0.0
2017-Apr-24 17:31N 27°51' W 082°24'0 0.0
2017-Apr-24 17:00N 27°51' W 082°24'0 0.0
2017-Apr-24 16:30N 27°51' W 082°24'0 0.0
2017-Apr-24 15:57N 27°51' W 082°24'0 0.0
2017-Apr-24 15:31N 27°51' W 082°24'0 0.0
2017-Apr-24 15:00N 27°51' W 082°24'0 0.0
2017-Apr-24 14:30N 27°51' W 082°24'0 0.0
2017-Apr-24 13:31N 27°51' W 082°24'0 0.0
2017-Apr-24 13:01N 27°51' W 082°24'0 0.0
2017-Apr-24 12:27N 27°51' W 082°24'0 0.0
2017-Apr-24 12:00N 27°51' W 082°24'0 0.0
2017-Apr-24 11:30N 27°51' W 082°24'0 0.0
2017-Apr-24 11:00N 27°51' W 082°24'0 0.0
2017-Apr-24 10:30N 27°51' W 082°24'0 0.0
2017-Apr-24 10:00N 27°51' W 082°24'0 0.0
2017-Apr-24 09:30N 27°51' W 082°24'0 0.0
2017-Apr-24 09:00N 27°51' W 082°24'0 0.0
2017-Apr-24 08:30N 27°51' W 082°24'0 0.0
2017-Apr-24 08:00N 27°51' W 082°24'0 0.0
2017-Apr-24 07:31N 27°51' W 082°24'0 0.0
2017-Apr-24 07:00N 27°51' W 082°24'0 0.0
2017-Apr-24 06:30N 27°51' W 082°24'0 0.0
2017-Apr-24 06:00N 27°51' W 082°24'0 0.0
2017-Apr-24 05:30N 27°51' W 082°24'0 0.0
2017-Apr-24 04:54N 27°51' W 082°24'0 0.0
2017-Apr-24 04:30N 27°51' W 082°24'0 0.0
2017-Apr-24 04:00N 27°51' W 082°24'0 0.0
2017-Apr-24 03:30N 27°51' W 082°24'0 0.0
2017-Apr-24 03:00N 27°51' W 082°24'0 0.0
2017-Apr-24 02:30N 27°51' W 082°24'0 0.0
2017-Apr-24 02:00N 27°51' W 082°24'0 0.0
2017-Apr-24 01:30N 27°51' W 082°24'0 0.0
2017-Apr-24 01:00N 27°51' W 082°24'3 5.1
2017-Apr-24 00:30N 27°51' W 082°26'5 9.6
2017-Apr-24 00:00N 27°47' W 082°30'611.6
2017-Apr-23 23:30N 27°42' W 082°33'612.1
2017-Apr-23 23:00N 27°38' W 082°38'  
Track history (hours):
 
Tides and Currents Weather Stations Pressure Air Temp Water Temp Dewpoint Dewpoint Depression Visibility Wind Speed Wind Dir Waves Ship Positions

Nord Copenhagen

Last reported at 2017-Apr-27 13:08 UTC. Time now 2017-Apr-28 10:23 UTC.
Position N 26°41' W 083°12'.

Length 177 m; draft 9.5 m.

Type: Cargo ship. MMSI: 373334000.

Date/timePositionNaut miles runAvg speedWind from/ knotsBaromVisibWave heightAir tempDewpointWater temp
2017-Apr-27 13:08N 26°41' W 083°12'212.7
2017-Apr-27 12:56N 26°43' W 083°13'512.6
2017-Apr-27 12:30N 26°49' W 083°12'1712.5
2017-Apr-27 11:06N 27°06' W 083°12'312.4
2017-Apr-27 10:53N 27°09' W 083°12'2712.4
2017-Apr-27 08:41N 27°35' W 083°01'1311.1
2017-Apr-27 07:30N 27°37' W 082°47'611.4
2017-Apr-27 07:00N 27°37' W 082°40'510.8
2017-Apr-27 06:30N 27°40' W 082°36'510.6
2017-Apr-27 06:00N 27°44' W 082°32'5 9.7
2017-Apr-27 05:30N 27°48' W 082°29'3 6.5
2017-Apr-27 05:00N 27°48' W 082°25'0 0.8
2017-Apr-27 04:28N 27°48' W 082°24'0 0.0
2017-Apr-27 03:58N 27°48' W 082°24'0 0.0
2017-Apr-27 03:28N 27°48' W 082°24'0 0.0
2017-Apr-27 02:58N 27°48' W 082°24'0 0.0
2017-Apr-27 02:28N 27°48' W 082°24'0 0.0
2017-Apr-27 01:58N 27°48' W 082°24'0 0.0
2017-Apr-27 01:28N 27°48' W 082°24'0 0.0
2017-Apr-27 00:58N 27°48' W 082°24'0 0.0
2017-Apr-27 00:25N 27°48' W 082°24'0 0.0
2017-Apr-26 23:58N 27°48' W 082°24'0 0.0
2017-Apr-26 23:28N 27°48' W 082°24'0 0.0
2017-Apr-26 22:58N 27°48' W 082°24'0 0.0
2017-Apr-26 22:28N 27°48' W 082°24'0 0.0
2017-Apr-26 21:58N 27°48' W 082°24'0 0.0
2017-Apr-26 21:28N 27°48' W 082°24'0 0.0
2017-Apr-26 20:58N 27°48' W 082°24'0 0.0
2017-Apr-26 20:28N 27°48' W 082°24'0 0.0
2017-Apr-26 19:58N 27°48' W 082°24'0 0.0
2017-Apr-26 19:28N 27°48' W 082°24'0 0.0
2017-Apr-26 18:58N 27°48' W 082°24'0 0.0
2017-Apr-26 18:28N 27°48' W 082°24'0 0.0
2017-Apr-26 17:58N 27°48' W 082°24'0 0.0
2017-Apr-26 17:28N 27°48' W 082°24'0 0.0
2017-Apr-26 16:58N 27°48' W 082°24'0 0.1
2017-Apr-26 16:28N 27°48' W 082°25'1 1.4
2017-Apr-26 16:00N 27°48' W 082°25'2 3.2
2017-Apr-26 15:30N 27°49' W 082°27'2 3.8
2017-Apr-26 15:00N 27°51' W 082°26'2 4.3
2017-Apr-26 14:28N 27°51' W 082°24'0 0.1
2017-Apr-26 13:28N 27°51' W 082°24'0 0.0
2017-Apr-26 12:58N 27°51' W 082°24'0 0.0
2017-Apr-26 12:28N 27°51' W 082°24'0 0.0
2017-Apr-26 11:55N 27°51' W 082°24'0 0.0
2017-Apr-26 11:28N 27°51' W 082°24'0 0.0
2017-Apr-26 10:58N 27°51' W 082°24'0 0.0
2017-Apr-26 10:28N 27°51' W 082°24'0 0.0
2017-Apr-26 09:58N 27°51' W 082°24'0 0.0
2017-Apr-26 09:28N 27°51' W 082°24'0 0.0
2017-Apr-26 08:58N 27°51' W 082°24'0 0.0
2017-Apr-26 08:28N 27°51' W 082°24'0 0.0
2017-Apr-26 07:58N 27°51' W 082°24'0 0.0
2017-Apr-26 07:28N 27°51' W 082°24'0 0.0
2017-Apr-26 06:58N 27°51' W 082°24'0 0.0
2017-Apr-26 06:28N 27°51' W 082°24'0 0.0
2017-Apr-26 05:58N 27°51' W 082°24'0 0.0
2017-Apr-26 05:28N 27°51' W 082°24'0 0.0
2017-Apr-26 04:58N 27°51' W 082°24'0 0.0
2017-Apr-26 04:28N 27°51' W 082°24'0 0.0
2017-Apr-26 03:58N 27°51' W 082°24'0 0.0
2017-Apr-26 03:28N 27°51' W 082°24'0 0.0
2017-Apr-26 02:58N 27°51' W 082°24'0 0.0
2017-Apr-26 02:28N 27°51' W 082°24'0 0.0
2017-Apr-26 01:58N 27°51' W 082°24'0 0.0
2017-Apr-26 01:28N 27°51' W 082°24'0 0.0
2017-Apr-26 00:58N 27°51' W 082°24'0 0.0
2017-Apr-26 00:28N 27°51' W 082°24'0 0.0
2017-Apr-26 00:01N 27°51' W 082°24'0 0.0
2017-Apr-25 23:28N 27°51' W 082°24'0 0.0
2017-Apr-25 22:58N 27°51' W 082°24'0 0.0
2017-Apr-25 22:28N 27°51' W 082°24'0 0.0
2017-Apr-25 21:58N 27°51' W 082°24'0 0.0
2017-Apr-25 21:28N 27°51' W 082°24'0 0.0
2017-Apr-25 20:58N 27°51' W 082°24'0 0.0
2017-Apr-25 20:28N 27°51' W 082°24'0 0.0
2017-Apr-25 20:01N 27°51' W 082°24'0 0.0
2017-Apr-25 19:28N 27°51' W 082°24'0 0.0
2017-Apr-25 18:58N 27°51' W 082°24'0 0.0
2017-Apr-25 18:28N 27°51' W 082°24'0 0.0
2017-Apr-25 17:58N 27°51' W 082°24'0 0.0
2017-Apr-25 17:28N 27°51' W 082°24'0 0.0
2017-Apr-25 16:58N 27°51' W 082°24'0 0.0
2017-Apr-25 16:28N 27°51' W 082°24'0 0.0
2017-Apr-25 15:58N 27°51' W 082°24'0 0.0
2017-Apr-25 15:28N 27°51' W 082°24'0 0.0
2017-Apr-25 14:58N 27°51' W 082°24'0 0.0
2017-Apr-25 14:28N 27°51' W 082°24'0 0.0
2017-Apr-25 13:28N 27°51' W 082°24'0 0.0
2017-Apr-25 13:00N 27°51' W 082°24'0 0.0
2017-Apr-25 12:28N 27°51' W 082°24'0 0.0
2017-Apr-25 11:58N 27°51' W 082°24'0 0.0
2017-Apr-25 11:28N 27°51' W 082°24'0 0.0
2017-Apr-25 10:58N 27°51' W 082°24'0 0.0
2017-Apr-25 10:28N 27°51' W 082°24'0 0.0
2017-Apr-25 09:58N 27°51' W 082°24'0 0.0
2017-Apr-25 09:28N 27°51' W 082°24'0 0.0
2017-Apr-25 09:01N 27°51' W 082°24'0 0.0
2017-Apr-25 08:31N 27°51' W 082°24'0 0.0
2017-Apr-25 07:58N 27°51' W 082°24'0 0.0
2017-Apr-25 07:28N 27°51' W 082°24'0 0.0
2017-Apr-25 07:01N 27°51' W 082°24'0 0.0
2017-Apr-25 06:28N 27°51' W 082°24'0 0.0
2017-Apr-25 06:00N 27°51' W 082°24'0 0.0
2017-Apr-25 05:31N 27°51' W 082°24'0 0.0
2017-Apr-25 05:00N 27°51' W 082°24'0 0.0
2017-Apr-25 04:27N 27°51' W 082°24'0 0.0
2017-Apr-25 04:01N 27°51' W 082°24'0 0.0
2017-Apr-25 03:30N 27°51' W 082°24'0 0.0
2017-Apr-25 03:01N 27°51' W 082°24'0 0.0
2017-Apr-25 02:31N 27°51' W 082°24'0 0.0
2017-Apr-25 02:01N 27°51' W 082°24'0 0.0
2017-Apr-25 01:28N 27°51' W 082°24'0 0.0
2017-Apr-25 00:58N 27°51' W 082°24'0 0.0
2017-Apr-25 00:28N 27°51' W 082°24'0 0.0
2017-Apr-24 23:57N 27°51' W 082°24'0 0.0
2017-Apr-24 23:30N 27°51' W 082°24'0 0.0
2017-Apr-24 23:00N 27°51' W 082°24'0 0.0
2017-Apr-24 22:31N 27°51' W 082°24'0 0.0
2017-Apr-24 22:00N 27°51' W 082°24'0 0.0
2017-Apr-24 21:30N 27°51' W 082°24'0 0.0
2017-Apr-24 21:00N 27°51' W 082°24'0 0.0
2017-Apr-24 20:30N 27°51' W 082°24'0 0.0
2017-Apr-24 20:00N 27°51' W 082°24'0 0.0
2017-Apr-24 19:30N 27°51' W 082°24'0 0.0
2017-Apr-24 18:57N 27°51' W 082°24'0 0.0
2017-Apr-24 18:27N 27°51' W 082°24'0 0.0
2017-Apr-24 18:01N 27°51' W 082°24'0 0.0
2017-Apr-24 17:31N 27°51' W 082°24'0 0.0
2017-Apr-24 17:00N 27°51' W 082°24'0 0.0
2017-Apr-24 16:30N 27°51' W 082°24'0 0.0
2017-Apr-24 15:57N 27°51' W 082°24'0 0.0
2017-Apr-24 15:31N 27°51' W 082°24'0 0.0
2017-Apr-24 15:00N 27°51' W 082°24'0 0.0
2017-Apr-24 14:30N 27°51' W 082°24'0 0.0
2017-Apr-24 13:31N 27°51' W 082°24'0 0.0
2017-Apr-24 13:01N 27°51' W 082°24'0 0.0
2017-Apr-24 12:27N 27°51' W 082°24'0 0.0
2017-Apr-24 12:00N 27°51' W 082°24'0 0.0
2017-Apr-24 11:30N 27°51' W 082°24'0 0.0
2017-Apr-24 11:00N 27°51' W 082°24'0 0.0
2017-Apr-24 10:30N 27°51' W 082°24'0 0.0
2017-Apr-24 10:00N 27°51' W 082°24'0 0.0
2017-Apr-24 09:30N 27°51' W 082°24'0 0.0
2017-Apr-24 09:00N 27°51' W 082°24'0 0.0
2017-Apr-24 08:30N 27°51' W 082°24'0 0.0
2017-Apr-24 08:00N 27°51' W 082°24'0 0.0
2017-Apr-24 07:31N 27°51' W 082°24'0 0.0
2017-Apr-24 07:00N 27°51' W 082°24'0 0.0
2017-Apr-24 06:30N 27°51' W 082°24'0 0.0
2017-Apr-24 06:00N 27°51' W 082°24'0 0.0
2017-Apr-24 05:30N 27°51' W 082°24'0 0.0
2017-Apr-24 04:54N 27°51' W 082°24'0 0.0
2017-Apr-24 04:30N 27°51' W 082°24'0 0.0
2017-Apr-24 04:00N 27°51' W 082°24'0 0.0
2017-Apr-24 03:30N 27°51' W 082°24'0 0.0
2017-Apr-24 03:00N 27°51' W 082°24'0 0.0
2017-Apr-24 02:30N 27°51' W 082°24'0 0.0
2017-Apr-24 02:00N 27°51' W 082°24'0 0.0
2017-Apr-24 01:30N 27°51' W 082°24'0 0.0
2017-Apr-24 01:00N 27°51' W 082°24'3 5.1
2017-Apr-24 00:30N 27°51' W 082°26'5 9.6
2017-Apr-24 00:00N 27°47' W 082°30'611.6
2017-Apr-23 23:30N 27°42' W 082°33'612.1
2017-Apr-23 23:00N 27°38' W 082°38'  

Dump ship's entire track history